Time;durP1;ratioP1;P1;durP2;ratioP2;P2;SDS_P1;SDS_P2;PMS_P1;PMS_P2;Temp;Humidity;BMP_temperature;BMP_pressure;BME280_temperature;BME280_humidity;BME280_pressure;Samples;Min_cycle;Max_cycle;Signal;HPM_P1;HPM_P2
2023/10/22 00:00:59;;;;;;;6.82;3.53;;;;;;;21.82;65.06;99202.22;39950679;29;20058;-73
2023/10/22 00:21:00;;;;;;;5.28;3.20;;;;;;;21.70;64.95;99133.97;39964318;29;20061;-74
2023/10/22 00:41:01;;;;;;;5.05;3.47;;;;;;;21.77;65.02;99181.59;39953264;29;20068;-74
2023/10/22 01:01:06;;;;;;;4.72;3.33;;;;;;;21.74;64.98;99151.13;39960057;29;20921;-73
2023/10/22 01:21:07;;;;;;;6.47;3.45;;;;;;;21.72;64.90;99184.69;39953949;29;20091;-73
2023/10/22 01:41:08;;;;;;;6.15;3.75;;;;;;;21.71;64.76;99163.75;39926617;29;20519;-73
2023/10/22 02:01:09;;;;;;;6.28;2.95;;;;;;;21.71;64.70;99154.03;39947260;29;20046;-72
2023/10/22 02:21:10;;;;;;;4.10;2.90;;;;;;;21.68;64.43;99164.91;39953028;29;20060;-71
2023/10/22 02:41:11;;;;;;;3.85;2.75;;;;;;;21.62;64.67;99147.06;39944501;29;20078;-68
2023/10/22 03:01:15;;;;;;;4.35;2.80;;;;;;;21.71;64.44;99155.88;39939151;29;20042;-72
2023/10/22 03:21:16;;;;;;;7.68;3.92;;;;;;;21.98;64.89;99164.63;39930834;29;20057;-68
2023/10/22 03:41:16;;;;;;;9.50;3.97;;;;;;;21.81;64.65;99139.97;39954702;29;20046;-73
2023/10/22 04:01:17;;;;;;;7.22;3.97;;;;;;;21.72;65.30;99154.88;39963641;29;20512;-70
2023/10/22 04:21:18;;;;;;;6.38;3.60;;;;;;;21.66;65.66;99174.75;39976126;29;20046;-70
2023/10/22 04:41:18;;;;;;;6.40;3.63;;;;;;;21.70;65.35;99249.88;39977894;29;20408;-68
2023/10/22 05:01:19;;;;;;;9.45;3.88;;;;;;;21.79;65.09;99265.75;39961468;29;20065;-70
2023/10/22 05:21:19;;;;;;;5.90;3.20;;;;;;;21.79;65.22;99295.59;39954489;29;20050;-70
2023/10/22 05:41:26;;;;;;;4.50;2.75;;;;;;;21.74;65.12;99337.38;39962096;29;20410;-71
2023/10/22 06:01:28;;;;;;;4.53;2.88;;;;;;;21.88;64.97;99404.53;39943521;29;20042;-67
2023/10/22 06:21:28;;;;;;;5.07;3.08;;;;;;;21.84;65.13;99440.91;39949147;29;20125;-68
2023/10/22 06:41:30;;;;;;;6.13;3.30;;;;;;;21.87;65.27;99456.44;39930681;29;20056;-67
2023/10/22 07:01:30;;;;;;;4.65;2.60;;;;;;;21.89;65.07;99477.38;39935680;29;20039;-73
2023/10/22 07:21:31;;;;;;;3.03;2.50;;;;;;;18.60;65.56;99536.34;39972166;29;20049;-68
2023/10/22 07:41:31;;;;;;;5.88;3.63;;;;;;;21.35;59.87;99563.97;39962289;29;20073;-76
2023/10/22 08:01:31;;;;;;;7.20;4.90;;;;;;;21.62;61.90;99601.97;39971586;29;21867;-69
2023/10/22 08:21:32;;;;;;;9.20;3.85;;;;;;;21.48;62.82;99614.56;39947439;29;20062;-67
2023/10/22 08:41:43;;;;;;;10.88;4.53;;;;;;;21.69;60.63;99646.06;39955582;29;20054;-73
2023/10/22 09:01:46;;;;;;;9.50;2.30;;;;;;;21.17;55.79;99682.34;39943028;29;20504;-70
2023/10/22 09:21:46;;;;;;;8.05;2.95;;;;;;;21.57;58.33;99699.88;39967033;29;20065;-80
2023/10/22 09:41:48;;;;;;;6.25;2.95;;;;;;;21.73;59.23;99741.47;39956829;29;20593;-76
2023/10/22 10:01:51;;;;;;;6.13;3.50;;;;;;;21.69;59.90;99756.75;39978751;29;20057;-76
2023/10/22 10:21:52;;;;;;;5.90;2.90;;;;;;;21.57;59.97;99763.94;39962736;29;20146;-73
2023/10/22 10:41:53;;;;;;;5.47;2.80;;;;;;;21.47;59.94;99791.19;39986164;29;20047;-73
2023/10/22 11:02:09;;;;;;;3.38;2.67;;;;;;;21.62;59.79;99829.38;39985906;29;20058;-73
2023/10/22 11:22:12;;;;;;;8.80;1.60;;;;;;;21.63;58.23;99835.47;39991720;29;20046;-70
2023/10/22 11:42:14;;;;;;;3.85;2.30;;;;;;;22.08;58.78;99813.88;39962702;29;20057;-71
2023/10/22 12:02:14;;;;;;;3.53;2.00;;;;;;;21.92;59.06;99835.53;39972587;29;20050;-70
2023/10/22 12:22:15;;;;;;;5.00;1.92;;;;;;;21.87;59.01;99848.28;39976333;29;20085;-70
2023/10/22 12:42:15;;;;;;;4.10;2.10;;;;;;;21.80;59.12;99863.81;39969685;29;20121;-70
2023/10/22 13:02:17;;;;;;;2.28;1.60;;;;;;;22.08;59.31;99882.44;39965968;29;20087;-70
2023/10/22 13:22:18;;;;;;;3.88;1.80;;;;;;;22.52;58.25;99897.91;39957228;29;20542;-72
2023/10/22 13:42:20;;;;;;;3.58;1.60;;;;;;;22.92;58.13;99882.84;39957324;29;20056;-71
2023/10/22 14:02:21;;;;;;;3.45;1.80;;;;;;;23.00;58.06;99897.00;39948819;29;20054;-71
2023/10/22 14:22:21;;;;;;;3.67;1.27;;;;;;;23.09;58.45;99932.28;39954862;29;20049;-73
2023/10/22 14:42:22;;;;;;;2.30;1.83;;;;;;;22.93;59.14;99940.78;39958870;29;20149;-70
2023/10/22 15:02:23;;;;;;;2.05;1.55;;;;;;;22.63;58.49;99974.31;39936489;29;20058;-71
2023/10/22 15:22:25;;;;;;;7.30;1.90;;;;;;;22.81;58.66;99992.94;39927757;29;20047;-72
2023/10/22 15:42:25;;;;;;;3.30;2.08;;;;;;;22.87;60.89;100015.28;39943528;29;20051;-74
2023/10/22 16:02:26;;;;;;;7.45;2.22;;;;;;;22.88;60.61;100032.78;39944483;29;20103;-73
2023/10/22 16:22:28;;;;;;;4.55;2.03;;;;;;;22.87;60.64;100054.88;39965565;29;20507;-71
2023/10/22 16:42:29;;;;;;;4.47;1.80;;;;;;;22.93;60.67;100078.06;39953484;29;20586;-72
2023/10/22 17:02:31;;;;;;;4.90;1.77;;;;;;;22.86;60.82;100098.06;39957281;29;20138;-73
2023/10/22 17:22:36;;;;;;;5.80;1.70;;;;;;;22.96;61.01;100124.50;39943621;29;20050;-71
2023/10/22 17:42:38;;;;;;;4.60;1.80;;;;;;;22.85;61.00;100139.50;39960713;29;20065;-73
2023/10/22 18:02:38;;;;;;;2.33;1.70;;;;;;;22.67;61.06;100122.66;39927233;29;20386;-70
2023/10/22 18:22:39;;;;;;;2.13;1.52;;;;;;;22.80;61.25;100139.06;39929390;29;20099;-72
2023/10/22 18:42:46;;;;;;;4.82;1.80;;;;;;;22.68;61.64;100148.06;39936689;29;20062;-74
2023/10/22 19:02:47;;;;;;;21.65;3.17;;;;;;;21.78;56.68;100154.84;39959167;29;20050;-70
2023/10/22 19:22:48;;;;;;;9.50;2.67;;;;;;;22.55;59.55;100195.81;39957697;29;20419;-73
2023/10/22 19:42:49;;;;;;;8.35;2.95;;;;;;;22.47;60.20;100224.63;39969027;29;20050;-71
2023/10/22 20:02:50;;;;;;;8.90;3.00;;;;;;;22.58;60.62;100231.63;39984414;29;20046;-73
2023/10/22 20:22:51;;;;;;;58.53;22.83;;;;;;;22.58;61.26;100252.75;39961106;29;20058;-72
2023/10/22 20:42:52;;;;;;;47.17;17.58;;;;;;;22.60;61.52;100245.56;39956762;29;20504;-71
2023/10/22 21:03:00;;;;;;;36.08;14.40;;;;;;;22.60;61.61;100254.28;39963382;29;20053;-70
2023/10/22 21:23:00;;;;;;;34.15;12.35;;;;;;;22.64;61.39;100244.31;39935578;29;20519;-71
2023/10/22 21:43:01;;;;;;;22.52;10.65;;;;;;;22.57;61.67;100253.72;39960218;29;20061;-70
2023/10/22 22:03:01;;;;;;;28.05;9.48;;;;;;;22.55;61.79;100257.31;39942220;29;20049;-69
2023/10/22 22:23:02;;;;;;;18.58;8.35;;;;;;;22.45;61.99;100281.97;39949688;29;20099;-68
2023/10/22 22:43:02;;;;;;;15.15;7.25;;;;;;;22.46;61.61;100294.19;39944833;29;20053;-69
2023/10/22 23:03:04;;;;;;;17.92;7.30;;;;;;;22.40;61.77;100277.09;39943209;29;20133;-70
2023/10/22 23:23:05;;;;;;;12.25;6.30;;;;;;;22.22;61.77;100253.06;39932030;29;20047;-69
2023/10/22 23:43:06;;;;;;;14.65;6.65;;;;;;;22.32;62.12;100282.97;39947048;29;20050;-69
